createdAt,value
2018-03-02T00:02:01.723Z,8.00
2018-03-02T00:04:28.412Z,7.65
2018-03-02T00:06:55.097Z,6.87
2018-03-02T00:09:21.497Z,7.45
2018-03-02T00:11:48.007Z,7.10
2018-03-02T00:14:14.434Z,7.12
2018-03-02T00:16:41.109Z,6.70
2018-03-02T00:19:08.295Z,8.40
2018-03-02T00:21:34.977Z,6.80
2018-03-02T00:24:01.400Z,6.45
2018-03-02T00:26:27.967Z,6.85
2018-03-02T00:28:54.531Z,8.32
2018-03-02T00:31:21.340Z,7.15
2018-03-02T00:33:47.810Z,8.02
2018-03-02T00:36:14.253Z,8.48
2018-03-02T00:38:40.658Z,6.90
2018-03-02T00:41:07.134Z,8.90
2018-03-02T00:43:33.564Z,8.68
2018-03-02T00:46:00.056Z,6.90
2018-03-02T00:48:26.591Z,7.75
2018-03-02T00:50:53.058Z,8.25
2018-03-02T00:53:19.524Z,9.15
2018-03-02T00:55:45.990Z,7.15
2018-03-02T00:58:12.415Z,8.32
2018-03-02T01:00:38.883Z,7.62
2018-03-02T01:03:05.317Z,9.07
2018-03-02T01:05:32.291Z,6.62
2018-03-02T01:07:58.859Z,6.40
2018-03-02T01:10:25.281Z,7.45
2018-03-02T01:12:51.702Z,8.73
2018-03-02T01:15:18.096Z,7.32
2018-03-02T01:17:44.547Z,8.20
2018-03-02T01:20:12.050Z,7.18
2018-03-02T01:22:38.534Z,6.70
2018-03-02T01:25:06.290Z,6.97
2018-03-02T01:27:32.914Z,9.40
2018-03-02T01:29:59.313Z,7.10
2018-03-02T01:32:25.829Z,7.40
2018-03-02T01:34:52.223Z,8.20
2018-03-02T01:37:19.378Z,7.87
2018-03-02T01:39:45.803Z,8.93
2018-03-02T01:42:12.201Z,9.10
2018-03-02T01:44:38.645Z,8.02
2018-03-02T01:47:05.032Z,7.80
2018-03-02T01:49:31.432Z,8.00
2018-03-02T01:51:57.880Z,5.97
2018-03-02T01:54:24.304Z,8.82
2018-03-02T01:56:50.715Z,7.90
2018-03-02T01:59:17.884Z,7.55
2018-03-02T02:01:44.302Z,8.30
2018-03-02T02:04:10.742Z,8.20
2018-03-02T02:06:37.190Z,8.02
2018-03-02T02:09:04.594Z,8.00
2018-03-02T02:11:30.989Z,7.82
2018-03-02T02:13:58.194Z,8.50
2018-03-02T02:16:25.341Z,8.23
2018-03-02T02:18:52.514Z,8.38
2018-03-02T02:21:18.939Z,8.23
2018-03-02T02:23:46.230Z,7.35
2018-03-02T02:26:12.681Z,9.10
2018-03-02T02:28:39.084Z,9.55
2018-03-02T02:31:05.487Z,10.20
2018-03-02T02:33:31.944Z,8.25
2018-03-02T02:35:58.326Z,9.60
2018-03-02T02:38:24.761Z,9.02
2018-03-02T02:40:51.154Z,8.32
2018-03-02T02:43:17.675Z,8.40
2018-03-02T02:45:44.117Z,9.55
2018-03-02T02:48:10.518Z,8.65
2018-03-02T02:50:37.717Z,8.57
2018-03-02T02:53:04.118Z,9.00
2018-03-02T02:55:31.298Z,8.68
2018-03-02T02:57:57.674Z,9.40
2018-03-02T03:00:24.151Z,8.07
2018-03-02T03:02:50.688Z,9.75
2018-03-02T03:05:17.071Z,8.63
2018-03-02T03:07:44.640Z,8.98
2018-03-02T03:10:11.974Z,10.23
2018-03-02T03:12:39.165Z,9.23
2018-03-02T03:15:06.184Z,10.15
2018-03-02T03:17:33.374Z,8.30
2018-03-02T03:20:00.056Z,8.85
2018-03-02T03:22:26.460Z,9.98
2018-03-02T03:24:52.886Z,9.77
2018-03-02T03:27:19.281Z,11.10
2018-03-02T03:29:45.706Z,8.75
2018-03-02T03:32:12.858Z,9.77
2018-03-02T03:34:39.407Z,9.13
2018-03-02T03:37:05.910Z,10.15
2018-03-02T03:39:32.310Z,9.23
2018-03-02T03:41:59.445Z,9.57
2018-03-02T03:44:25.833Z,9.77
2018-03-02T03:46:52.289Z,9.48
2018-03-02T03:49:18.725Z,10.07
2018-03-02T03:51:45.173Z,9.60
2018-03-02T03:54:11.573Z,11.32
2018-03-02T03:56:38.810Z,9.10
2018-03-02T03:59:05.212Z,10.40
2018-03-02T04:01:31.660Z,8.93
2018-03-02T04:03:58.074Z,10.20
2018-03-02T04:06:24.566Z,8.90
2018-03-02T04:08:50.968Z,9.27
2018-03-02T04:11:17.467Z,9.52
2018-03-02T04:13:43.856Z,8.88
2018-03-02T04:16:10.299Z,11.48
2018-03-02T04:18:36.855Z,9.27
2018-03-02T04:21:03.326Z,9.60
2018-03-02T04:23:29.737Z,10.63
2018-03-02T04:25:56.190Z,9.15
2018-03-02T04:28:22.692Z,10.60
2018-03-02T04:30:49.841Z,10.25
2018-03-02T04:33:16.331Z,11.25
2018-03-02T04:35:42.803Z,7.95
2018-03-02T04:38:09.268Z,10.88
2018-03-02T04:40:35.665Z,5.37
2018-03-02T04:43:02.063Z,10.52
2018-03-02T04:45:28.459Z,8.70
2018-03-02T04:47:54.872Z,10.57
2018-03-02T04:50:21.364Z,10.10
2018-03-02T04:52:48.590Z,7.80
2018-03-02T04:55:15.035Z,9.63
2018-03-02T04:57:41.472Z,10.30
2018-03-02T05:00:08.481Z,10.07
2018-03-02T05:02:34.906Z,8.68
2018-03-02T05:05:01.391Z,10.95
2018-03-02T05:07:27.836Z,8.25
2018-03-02T05:09:54.245Z,11.85
2018-03-02T05:12:20.705Z,7.78
2018-03-02T05:14:47.616Z,9.55
2018-03-02T05:17:14.813Z,9.85
2018-03-02T05:19:41.267Z,11.95
2018-03-02T05:22:07.778Z,10.35
2018-03-02T05:24:34.241Z,9.43
2018-03-02T05:27:00.658Z,8.40
2018-03-02T05:29:27.147Z,9.20
2018-03-02T05:31:53.652Z,11.45
2018-03-02T05:34:20.348Z,12.02
2018-03-02T05:36:46.758Z,11.00
2018-03-02T05:39:13.200Z,10.10
2018-03-02T05:41:39.878Z,12.43
2018-03-02T05:44:06.370Z,9.57
2018-03-02T05:46:33.561Z,11.10
2018-03-02T05:49:00.091Z,10.80
2018-03-02T05:51:26.699Z,11.02
2018-03-02T05:53:53.245Z,10.63
2018-03-02T05:56:19.903Z,9.65
2018-03-02T05:58:47.239Z,11.25
2018-03-02T06:01:14.625Z,10.52
2018-03-02T06:03:41.828Z,10.35
2018-03-02T06:06:08.501Z,12.48
2018-03-02T06:08:35.627Z,10.35
2018-03-02T06:11:02.231Z,11.60
2018-03-02T06:13:51.474Z,8.57
2018-03-02T06:16:18.164Z,9.23
2018-03-02T06:18:44.714Z,13.13
2018-03-02T06:21:11.530Z,10.75
2018-03-02T06:23:39.306Z,12.68
2018-03-02T06:26:05.912Z,11.57
2018-03-02T06:28:32.617Z,9.88
2018-03-02T06:30:59.203Z,11.93
2018-03-02T06:33:26.978Z,13.95
2018-03-02T06:35:53.517Z,12.70
2018-03-02T06:38:20.714Z,12.50
2018-03-02T06:40:47.132Z,12.70
2018-03-02T06:43:14.142Z,11.80
2018-03-02T06:45:40.871Z,11.50
2018-03-02T06:48:08.237Z,11.70
2018-03-02T06:50:34.785Z,13.52
2018-03-02T06:53:01.624Z,11.90
2018-03-02T06:55:28.914Z,12.07
2018-03-02T06:57:55.467Z,12.30
2018-03-02T07:00:22.023Z,13.80
2018-03-02T07:02:48.539Z,11.40
2018-03-02T07:05:15.104Z,12.82
2018-03-02T07:07:41.588Z,12.20
2018-03-02T07:10:08.675Z,14.90
2018-03-02T07:12:35.161Z,11.68
2018-03-02T07:15:01.730Z,11.43
2018-03-02T07:17:28.231Z,12.63
2018-03-02T07:19:55.824Z,12.60
2018-03-02T07:22:23.161Z,12.75
2018-03-02T07:24:50.446Z,12.77
2018-03-02T07:27:17.148Z,11.43
2018-03-02T07:29:43.832Z,9.40
2018-03-02T07:32:10.408Z,13.43
2018-03-02T07:34:38.796Z,15.27
2018-03-02T07:37:05.329Z,15.13
2018-03-02T07:39:32.210Z,12.98
2018-03-02T07:41:59.349Z,10.48
2018-03-02T07:44:25.842Z,14.95
2018-03-02T07:46:52.722Z,14.15
2018-03-02T07:49:19.996Z,15.63
2018-03-02T07:51:46.547Z,13.82
2018-03-02T07:54:13.819Z,14.93
2018-03-02T07:56:40.408Z,14.93
2018-03-02T07:59:08.004Z,16.75
2018-03-02T08:01:34.607Z,14.65
2018-03-02T08:04:01.225Z,12.25
2018-03-02T08:06:28.530Z,14.82
2018-03-02T08:08:55.056Z,12.25
2018-03-02T08:11:22.239Z,15.48
2018-03-02T08:13:48.775Z,12.93
2018-03-02T08:16:15.266Z,11.38
2018-03-02T08:18:42.003Z,14.77
2018-03-02T08:21:08.934Z,14.87
2018-03-02T08:23:35.432Z,15.02
2018-03-02T08:26:02.662Z,16.80
2018-03-02T08:28:29.998Z,15.40
2018-03-02T08:30:56.630Z,16.87
2018-03-02T08:33:23.336Z,16.00
2018-03-02T08:35:49.994Z,16.40
2018-03-02T08:38:17.222Z,17.42
2018-03-02T08:40:43.762Z,15.80
2018-03-02T08:43:10.303Z,14.90
2018-03-02T08:45:36.871Z,16.83
2018-03-02T08:48:03.454Z,15.35
2018-03-02T08:50:30.733Z,12.75
2018-03-02T08:52:58.007Z,16.05
2018-03-02T08:55:24.622Z,15.80
2018-03-02T08:57:51.931Z,13.55
2018-03-02T09:00:19.166Z,17.02
2018-03-02T09:02:47.153Z,15.85
2018-03-02T09:05:13.729Z,15.30
2018-03-02T09:07:40.232Z,13.30
2018-03-02T09:10:08.079Z,17.08
2018-03-02T09:12:35.764Z,15.70
2018-03-02T09:15:02.506Z,17.67
2018-03-02T09:17:29.671Z,16.23
2018-03-02T09:19:56.426Z,14.50
2018-03-02T09:22:23.250Z,18.17
2018-03-02T09:24:49.806Z,17.05
2018-03-02T09:27:16.403Z,16.77
2018-03-02T09:29:43.687Z,16.20
2018-03-02T09:32:10.948Z,17.30
2018-03-02T09:34:37.684Z,19.15
2018-03-02T09:37:04.301Z,17.60
2018-03-02T09:39:30.913Z,18.52
2018-03-02T09:41:58.169Z,16.80
2018-03-02T09:44:24.681Z,16.75
2018-03-02T09:46:52.874Z,17.60
2018-03-02T09:49:20.352Z,17.17
2018-03-02T09:51:47.639Z,15.27
2018-03-02T09:54:14.181Z,17.55
2018-03-02T09:56:40.751Z,16.05
2018-03-02T09:59:07.378Z,17.00
2018-03-02T10:01:33.913Z,19.20
2018-03-02T10:04:00.399Z,17.20
2018-03-02T10:06:27.693Z,15.15
2018-03-02T10:08:54.252Z,16.20
2018-03-02T10:11:20.762Z,15.93
2018-03-02T10:13:47.265Z,16.57
2018-03-02T10:16:13.968Z,15.50
2018-03-02T10:18:40.600Z,17.75
2018-03-02T10:21:07.231Z,20.20
2018-03-02T10:23:33.821Z,16.85
2018-03-02T10:26:00.368Z,17.12
2018-03-02T10:28:26.959Z,16.85
2018-03-02T10:30:53.569Z,18.00
2018-03-02T10:33:21.083Z,16.77
2018-03-02T10:35:47.736Z,17.67
2018-03-02T10:38:14.188Z,17.50
2018-03-02T10:40:40.943Z,16.70
2018-03-02T10:43:07.449Z,17.17
2018-03-02T10:45:34.076Z,17.27
2018-03-02T10:48:00.586Z,15.73
2018-03-02T10:50:27.101Z,18.90
2018-03-02T10:52:53.644Z,18.23
2018-03-02T10:55:20.248Z,17.35
2018-03-02T10:57:46.791Z,17.80
2018-03-02T11:00:14.223Z,18.23
2018-03-02T11:02:46.954Z,18.33
2018-03-02T11:05:13.523Z,19.13
2018-03-02T11:07:40.232Z,18.43
2018-03-02T11:10:07.500Z,18.10
2018-03-02T11:12:34.826Z,17.43
2018-03-02T11:15:01.362Z,18.30
2018-03-02T11:17:27.920Z,17.60
2018-03-02T11:19:54.442Z,19.07
2018-03-02T11:22:21.068Z,20.40
2018-03-02T11:24:47.534Z,20.23
2018-03-02T11:27:13.994Z,17.47
2018-03-02T11:29:40.859Z,19.80
2018-03-02T11:32:07.484Z,20.77
2018-03-02T11:34:34.738Z,18.47
2018-03-02T11:37:01.231Z,15.03
2018-03-02T11:39:27.811Z,18.13
2018-03-02T11:41:55.198Z,20.80
2018-03-02T11:44:22.444Z,19.70
2018-03-02T11:46:49.747Z,19.07
2018-03-02T11:49:17.028Z,19.17
2018-03-02T11:51:43.568Z,23.90
2018-03-02T11:54:10.127Z,20.23
2018-03-02T11:56:36.641Z,21.87
2018-03-02T11:59:03.227Z,20.60
2018-03-02T12:01:29.887Z,21.37
2018-03-02T12:03:57.438Z,20.50
2018-03-02T12:06:24.018Z,21.47
2018-03-02T12:08:50.638Z,21.60
2018-03-02T12:11:17.138Z,21.20
2018-03-02T12:13:44.633Z,20.50
2018-03-02T12:16:11.187Z,21.83
2018-03-02T12:18:37.815Z,22.83
2018-03-02T12:21:05.115Z,21.33
2018-03-02T12:23:31.645Z,19.43
2018-03-02T12:25:59.067Z,20.73
2018-03-02T12:28:26.490Z,19.37
2018-03-02T12:30:53.743Z,19.40
2018-03-02T12:33:20.880Z,19.00
2018-03-02T12:35:48.545Z,20.50
2018-03-02T12:38:15.087Z,21.33
2018-03-02T12:40:41.739Z,19.83
2018-03-02T12:43:08.174Z,19.80
2018-03-02T12:45:35.574Z,19.57
2018-03-02T12:48:02.802Z,18.40
2018-03-02T12:50:29.421Z,20.53
2018-03-02T12:52:56.063Z,19.73
2018-03-02T12:55:23.719Z,21.33
2018-03-02T12:57:51.435Z,19.30
2018-03-02T13:00:18.047Z,20.37
2018-03-02T13:02:44.878Z,22.13
2018-03-02T13:05:12.126Z,19.73
2018-03-02T13:07:38.602Z,19.00
2018-03-02T13:10:06.574Z,19.60
2018-03-02T13:12:34.551Z,19.00
2018-03-02T13:15:01.231Z,19.63
2018-03-02T13:17:27.867Z,19.33
2018-03-02T13:19:54.397Z,18.60
2018-03-02T13:22:33.313Z,19.93
2018-03-02T13:24:59.783Z,19.90
2018-03-02T13:27:38.559Z,18.47
2018-03-02T13:30:06.591Z,18.30
2018-03-02T13:32:33.158Z,18.73
2018-03-02T13:35:08.810Z,19.23
2018-03-02T13:37:35.430Z,21.70
2018-03-02T13:40:14.117Z,17.93
2018-03-02T13:42:41.374Z,18.73
2018-03-02T13:45:08.547Z,17.70
2018-03-02T13:50:35.629Z,17.53
2018-03-02T13:53:02.867Z,19.07
2018-03-02T13:55:30.439Z,21.97
2018-03-02T13:58:01.937Z,19.20
2018-03-02T14:00:28.360Z,19.13
2018-03-02T14:03:08.212Z,17.60
2018-03-02T14:05:36.244Z,18.23
2018-03-02T14:08:02.809Z,18.80
2018-03-02T14:10:29.534Z,21.13
2018-03-02T14:12:56.099Z,19.60
2018-03-02T14:15:23.327Z,18.87
2018-03-02T14:17:49.967Z,19.70
2018-03-02T14:20:17.264Z,17.83
2018-03-02T14:22:44.605Z,18.60
2018-03-02T14:25:11.463Z,18.83
2018-03-02T14:27:38.692Z,18.57
2018-03-02T14:30:05.621Z,18.10
2018-03-02T14:32:33.399Z,20.37
2018-03-02T14:35:02.433Z,18.67
2018-03-02T14:37:28.939Z,19.07
2018-03-02T14:39:56.163Z,16.53
2018-03-02T14:42:23.437Z,19.73
2018-03-02T14:44:49.989Z,19.63
2018-03-02T14:47:16.466Z,19.80
2018-03-02T14:49:42.938Z,18.47
2018-03-02T14:52:09.435Z,18.63
2018-03-02T14:54:36.041Z,20.73
2018-03-02T14:57:02.630Z,17.20
2018-03-02T14:59:33.132Z,18.97
2018-03-02T15:01:59.668Z,18.63
2018-03-02T15:04:26.215Z,18.20
2018-03-02T15:06:52.995Z,17.87
2018-03-02T15:09:26.393Z,19.67
2018-03-02T15:11:53.174Z,19.27
2018-03-02T15:14:19.947Z,19.73
2018-03-02T15:16:47.299Z,20.70
2018-03-02T15:19:13.959Z,19.13
2018-03-02T15:21:42.239Z,19.50
2018-03-02T15:24:10.534Z,19.00
2018-03-02T15:26:38.709Z,22.40
2018-03-02T15:29:06.736Z,18.20
2018-03-02T15:31:33.342Z,19.97
2018-03-02T15:34:00.703Z,19.37
2018-03-02T15:36:28.183Z,20.00
2018-03-02T15:38:54.769Z,18.77
2018-03-02T15:41:21.261Z,20.17
2018-03-02T15:43:48.689Z,18.47
2018-03-02T15:46:15.338Z,21.57
2018-03-02T15:48:42.906Z,19.13
2018-03-02T15:51:09.557Z,18.17
2018-03-02T15:53:36.147Z,21.60
2018-03-02T15:56:02.830Z,19.47
2018-03-02T15:58:30.096Z,22.13
2018-03-02T16:00:56.582Z,20.00
2018-03-02T16:03:24.718Z,18.70
2018-03-02T16:05:51.428Z,19.20
2018-03-02T16:08:19.195Z,19.00
2018-03-02T16:10:46.588Z,19.20
2018-03-02T16:13:13.152Z,19.23
2018-03-02T16:15:39.733Z,19.63
2018-03-02T16:18:07.421Z,41.03
2018-03-02T16:20:35.005Z,21.47
2018-03-02T16:23:01.600Z,18.80
2018-03-02T16:25:28.703Z,19.00
2018-03-02T16:27:56.763Z,19.37
2018-03-02T16:30:24.712Z,16.70
2018-03-02T16:32:51.270Z,17.93
2018-03-02T16:35:18.583Z,17.00
2018-03-02T16:37:45.479Z,19.27
2018-03-02T16:40:12.632Z,19.13
2018-03-02T16:42:39.173Z,19.07
2018-03-02T16:45:07.186Z,19.33
2018-03-02T16:47:34.798Z,17.80
2018-03-02T16:50:01.286Z,17.90
2018-03-02T16:52:28.925Z,20.20
2018-03-02T16:54:55.573Z,18.60
2018-03-02T16:57:23.004Z,18.80
2018-03-02T16:59:50.303Z,16.93
2018-03-02T17:02:17.231Z,17.83
2018-03-02T17:04:44.517Z,18.80
2018-03-02T17:07:11.777Z,16.73
2018-03-02T17:09:38.286Z,20.03
2018-03-02T17:12:05.738Z,18.13
2018-03-02T17:14:32.322Z,17.70
2018-03-02T17:16:59.734Z,17.20
2018-03-02T17:19:26.259Z,17.43
2018-03-02T17:21:53.098Z,18.50
2018-03-02T17:24:20.685Z,17.73
2018-03-02T17:26:47.332Z,17.23
2018-03-02T17:29:14.267Z,16.60
2018-03-02T17:31:41.658Z,14.90
2018-03-02T17:34:08.173Z,18.87
2018-03-02T17:36:34.807Z,17.33
2018-03-02T17:39:02.684Z,15.77
2018-03-02T17:41:29.147Z,18.40
2018-03-02T17:43:56.604Z,16.13
2018-03-02T17:46:23.086Z,19.80
2018-03-02T17:48:49.991Z,18.20
2018-03-02T17:51:16.446Z,18.03
2018-03-02T17:53:42.903Z,18.40
2018-03-02T17:56:09.358Z,17.63
2018-03-02T17:58:36.541Z,19.05
2018-03-02T18:01:03.073Z,18.37
2018-03-02T18:03:29.532Z,14.80
2018-03-02T18:05:56.188Z,15.82
2018-03-02T18:08:23.407Z,19.77
2018-03-02T18:10:50.259Z,19.40
2018-03-02T18:13:16.693Z,15.73
2018-03-02T18:15:43.131Z,20.05
2018-03-02T18:18:09.611Z,16.00
2018-03-02T18:20:36.164Z,19.50
2018-03-02T18:23:02.687Z,18.83
2018-03-02T18:25:29.123Z,17.37
2018-03-02T18:27:55.659Z,20.57
2018-03-02T18:30:22.130Z,18.47
2018-03-02T18:32:49.327Z,21.10
2018-03-02T18:35:15.778Z,20.63
2018-03-02T18:37:42.281Z,23.60
2018-03-02T18:40:08.925Z,20.20
2018-03-02T18:42:35.419Z,19.27
2018-03-02T18:45:02.036Z,19.50
2018-03-02T18:47:29.203Z,20.33
2018-03-02T18:49:55.755Z,20.92
2018-03-02T18:52:22.202Z,20.10
2018-03-02T18:54:48.649Z,19.80
2018-03-02T18:57:15.831Z,19.70
2018-03-02T18:59:42.416Z,18.57
2018-03-02T19:02:10.476Z,20.12
2018-03-02T19:04:36.945Z,19.07
2018-03-02T19:07:03.428Z,21.90
2018-03-02T19:09:30.080Z,20.23
2018-03-02T19:11:56.549Z,19.57
2018-03-02T19:14:23.010Z,22.30
2018-03-02T19:16:49.443Z,21.23
2018-03-02T19:19:15.902Z,14.15
2018-03-02T19:21:43.167Z,17.35
2018-03-02T19:24:09.588Z,21.40
2018-03-02T19:26:36.063Z,22.58
2018-03-02T19:29:03.329Z,25.00
2018-03-02T19:31:30.547Z,19.58
2018-03-02T19:33:57.012Z,18.87
2018-03-02T19:36:23.584Z,22.30
2018-03-02T19:38:49.979Z,14.60
2018-03-02T19:41:16.721Z,23.45
2018-03-02T19:43:43.195Z,17.85
2018-03-02T19:46:09.948Z,22.40
2018-03-02T19:48:36.401Z,25.00
2018-03-02T19:51:02.969Z,23.87
2018-03-02T19:53:30.201Z,25.02
2018-03-02T19:55:57.420Z,22.67
2018-03-02T19:58:23.943Z,24.17
2018-03-02T20:00:50.387Z,23.05
2018-03-02T20:03:17.534Z,22.50
2018-03-02T20:05:44.714Z,26.08
2018-03-02T20:08:11.893Z,25.20
2018-03-02T20:10:38.407Z,24.35
2018-03-02T20:13:04.821Z,14.65
2018-03-02T20:15:31.310Z,26.50
2018-03-02T20:17:58.579Z,26.65
2018-03-02T20:20:25.805Z,27.33
2018-03-02T20:22:52.206Z,21.48
2018-03-02T20:25:18.634Z,24.73
2018-03-02T20:27:45.109Z,28.80
2018-03-02T20:30:12.104Z,24.10
2018-03-02T20:32:39.353Z,27.52
2018-03-02T20:35:06.123Z,29.25
2018-03-02T20:37:32.655Z,26.77
2018-03-02T20:39:59.150Z,27.13
2018-03-02T20:42:25.666Z,30.27
2018-03-02T20:44:52.878Z,26.80
2018-03-02T20:47:19.390Z,25.23
2018-03-02T20:49:45.787Z,30.12
2018-03-02T20:52:12.256Z,29.98
2018-03-02T20:54:38.845Z,29.10
2018-03-02T20:57:06.062Z,26.52
2018-03-02T20:59:32.504Z,29.98
2018-03-02T21:01:59.735Z,24.23
2018-03-02T21:04:26.157Z,30.52
2018-03-02T21:06:52.638Z,29.52
2018-03-02T21:09:19.079Z,27.05
2018-03-02T21:11:45.505Z,31.58
2018-03-02T21:14:12.688Z,32.22
2018-03-02T21:16:39.087Z,31.92
2018-03-02T21:19:06.256Z,34.72
2018-03-02T21:21:33.413Z,33.58
2018-03-02T21:23:59.848Z,28.33
2018-03-02T21:26:26.275Z,29.15
2018-03-02T21:28:52.684Z,32.83
2018-03-02T21:31:19.113Z,31.98
2018-03-02T21:33:45.607Z,35.08
2018-03-02T21:36:12.064Z,32.15
2018-03-02T21:38:38.502Z,34.55
2018-03-02T21:41:04.948Z,35.35
2018-03-02T21:43:32.209Z,32.17
2018-03-02T21:45:58.682Z,34.33
2018-03-02T21:48:25.898Z,29.65
2018-03-02T21:50:52.308Z,33.38
2018-03-02T21:53:18.730Z,29.60
2018-03-02T21:55:45.170Z,28.20
2018-03-02T21:58:12.419Z,36.55
2018-03-02T22:00:38.834Z,32.22
2018-03-02T22:03:05.265Z,31.90
2018-03-02T22:05:31.708Z,33.17
2018-03-02T22:07:58.110Z,29.90
2018-03-02T22:10:25.504Z,31.23
2018-03-02T22:12:52.660Z,33.05
2018-03-02T22:15:19.894Z,34.47
2018-03-02T22:17:47.096Z,34.35
2018-03-02T22:20:13.525Z,32.05
2018-03-02T22:22:39.944Z,32.97
2018-03-02T22:25:07.821Z,33.10
2018-03-02T22:27:34.991Z,26.48
2018-03-02T22:30:01.491Z,35.03
2018-03-02T22:32:27.933Z,32.75
2018-03-02T22:34:54.406Z,34.88
2018-03-02T22:37:20.827Z,29.20
2018-03-02T22:39:47.312Z,36.78
2018-03-02T22:42:13.719Z,35.30
2018-03-02T22:44:40.123Z,35.80
2018-03-02T22:47:06.642Z,37.15
2018-03-02T22:49:33.854Z,37.22
2018-03-02T22:52:00.989Z,34.35
2018-03-02T22:54:27.554Z,34.80
2018-03-02T22:56:53.975Z,35.65
2018-03-02T22:59:20.379Z,35.33
2018-03-02T23:01:46.823Z,35.25
2018-03-02T23:04:13.203Z,34.15
2018-03-02T23:06:39.751Z,37.05
2018-03-02T23:09:06.205Z,39.15
2018-03-02T23:11:32.736Z,37.78
2018-03-02T23:13:59.177Z,38.63
2018-03-02T23:16:25.573Z,36.80
2018-03-02T23:18:51.921Z,33.45
2018-03-02T23:21:18.366Z,34.70
2018-03-02T23:23:44.887Z,36.85
2018-03-02T23:26:11.306Z,33.15
2018-03-02T23:28:37.818Z,35.90
2018-03-02T23:31:04.251Z,35.28
2018-03-02T23:33:30.673Z,36.55
2018-03-02T23:35:57.847Z,37.30
2018-03-02T23:38:24.961Z,37.05
2018-03-02T23:40:51.400Z,36.50
2018-03-02T23:43:17.786Z,36.55
2018-03-02T23:45:44.958Z,35.25
2018-03-02T23:48:11.327Z,38.28
2018-03-02T23:50:37.751Z,35.28
2018-03-02T23:53:04.253Z,34.58
2018-03-02T23:55:30.650Z,38.78
2018-03-02T23:57:57.222Z,36.25
